Terminal Aerodrome Forecast
Issued by NWS Louisville, KY

Home | Current Version | Previous Version | Text Only | Print | Product List | Glossary On
Versions: 1 2 3 4 5 6 7 8 9 10 11 12 13 14 15
000
FTUS43 KLMK 031000 AAB
TAFBWG
TAF AMD
KBWG 031019Z 0310/0406 00000KT 3SM BR SKC
      TEMPO 0310/0312 1SM BR
     FM031300 19007KT P6SM FEW050 SCT150
     FM040000 VRB03KT P6SM SCT150=

USA.gov is the U.S. government's official web portal to all federal, state and local government web resources and services.